Time;durP1;ratioP1;P1;durP2;ratioP2;P2;SDS_P1;SDS_P2;PMS_P1;PMS_P2;Temp;Humidity;BMP_temperature;BMP_pressure;BME280_temperature;BME280_humidity;BME280_pressure;Samples;Min_cycle;Max_cycle;Signal;HPM_P1;HPM_P2
2021/05/19 00:00:00;;;;;;;9.18;5.85;;;23.20;53.60;;;;;;6188827;28;82191;-66
2021/05/19 00:03:00;;;;;;;9.80;6.20;;;23.30;53.50;;;;;;6156988;28;80632;-66
2021/05/19 00:06:01;;;;;;;9.48;5.35;;;23.30;53.30;;;;;;6170451;28;80957;-66
2021/05/19 00:09:01;;;;;;;11.13;5.50;;;23.30;53.30;;;;;;6167020;28;80556;-65
2021/05/19 00:12:02;;;;;;;8.77;5.10;;;23.30;53.30;;;;;;6157904;28;82448;-66
2021/05/19 00:15:02;;;;;;;7.75;5.32;;;23.30;53.40;;;;;;6170383;28;80218;-65
2021/05/19 00:18:03;;;;;;;8.98;5.50;;;23.30;53.40;;;;;;6179088;28;81272;-66
2021/05/19 00:21:03;;;;;;;10.18;5.75;;;23.30;53.00;;;;;;6180906;28;84228;-66
2021/05/19 00:24:04;;;;;;;10.40;5.50;;;23.20;53.20;;;;;;6181637;28;80847;-65
2021/05/19 00:27:04;;;;;;;9.32;5.53;;;23.30;53.30;;;;;;6181376;28;80901;-66
2021/05/19 00:30:05;;;;;;;8.20;5.07;;;23.20;53.10;;;;;;6164151;28;80983;-66
2021/05/19 00:33:06;;;;;;;9.23;5.35;;;23.20;52.90;;;;;;6170317;28;80279;-65
2021/05/19 00:36:06;;;;;;;13.32;5.97;;;23.20;52.90;;;;;;6166773;28;83117;-65
2021/05/19 00:39:07;;;;;;;9.27;5.00;;;23.20;53.10;;;;;;6157131;28;80533;-64
2021/05/19 00:42:07;;;;;;;8.55;5.18;;;23.30;52.90;;;;;;6157647;28;80408;-66
2021/05/19 00:45:08;;;;;;;7.97;5.10;;;23.20;52.90;;;;;;6155598;28;81823;-66
2021/05/19 00:48:10;;;;;;;8.02;5.10;;;23.20;52.80;;;;;;6159981;28;81314;-65
2021/05/19 00:51:11;;;;;;;12.65;5.57;;;23.20;52.80;;;;;;6184580;28;82755;-66
2021/05/19 00:54:13;;;;;;;11.88;6.07;;;23.20;52.70;;;;;;6179530;28;81570;-66
2021/05/19 00:57:13;;;;;;;10.10;5.70;;;23.20;52.60;;;;;;6167898;28;81707;-66
2021/05/19 01:00:14;;;;;;;9.70;5.15;;;23.20;52.70;;;;;;6159755;28;83436;-66
2021/05/19 01:03:28;;;;;;;8.70;5.18;;;23.20;52.60;;;;;;6159199;28;86466;-67
2021/05/19 01:06:47;;;;;;;8.00;5.15;;;23.20;52.70;;;;;;6155261;28;82435;-67
2021/05/19 01:09:48;;;;;;;9.45;5.20;;;23.20;52.40;;;;;;6157098;28;80470;-67
2021/05/19 01:12:48;;;;;;;8.20;4.78;;;23.20;52.60;;;;;;6175977;28;80765;-66
2021/05/19 01:15:49;;;;;;;9.70;5.85;;;23.20;52.30;;;;;;6164557;28;83571;-66
2021/05/19 01:18:49;;;;;;;8.45;5.10;;;23.20;51.90;;;;;;6177514;28;80807;-66
2021/05/19 01:21:50;;;;;;;9.82;5.70;;;23.20;52.00;;;;;;6164195;28;80363;-67
2021/05/19 01:24:51;;;;;;;8.13;5.22;;;23.20;52.20;;;;;;6171583;28;83256;-66
2021/05/19 01:27:52;;;;;;;7.78;4.93;;;23.20;51.80;;;;;;6155553;28;83352;-66
2021/05/19 01:30:52;;;;;;;8.50;5.72;;;23.20;51.70;;;;;;6157919;28;82721;-66
2021/05/19 01:33:53;;;;;;;11.73;5.55;;;23.20;52.00;;;;;;6175174;28;82169;-66
2021/05/19 01:36:53;;;;;;;11.52;5.88;;;23.20;51.80;;;;;;6157577;28;80506;-65
2021/05/19 01:39:54;;;;;;;9.55;5.60;;;23.20;51.80;;;;;;6160541;28;80476;-65
2021/05/19 01:42:55;;;;;;;11.60;5.82;;;23.20;51.70;;;;;;6159753;28;81799;-65
2021/05/19 01:46:20;;;;;;;10.45;5.75;;;23.20;51.80;;;;;;6178051;28;81673;-65
2021/05/19 01:49:25;;;;;;;11.13;5.80;;;23.20;51.60;;;;;;6165229;28;80232;-66
2021/05/19 01:52:26;;;;;;;11.07;5.82;;;23.20;51.20;;;;;;6161842;28;80389;-66
2021/05/19 01:55:26;;;;;;;10.05;6.03;;;23.10;51.10;;;;;;6164994;28;80930;-66
2021/05/19 01:58:27;;;;;;;8.48;5.95;;;23.20;51.30;;;;;;6181360;28;82965;-66
2021/05/19 02:01:28;;;;;;;9.82;5.53;;;23.20;51.30;;;;;;6190634;28;92239;-65
2021/05/19 02:04:31;;;;;;;11.40;6.07;;;23.10;51.10;;;;;;6164127;28;86296;-65
2021/05/19 02:07:32;;;;;;;9.73;5.72;;;23.20;51.00;;;;;;6192475;28;82639;-65
2021/05/19 02:10:32;;;;;;;10.77;6.28;;;23.20;51.10;;;;;;6191030;28;83458;-65
2021/05/19 02:13:34;;;;;;;9.57;5.88;;;23.20;51.10;;;;;;6193400;28;83644;-65
2021/05/19 02:16:36;;;;;;;9.80;5.50;;;23.20;50.90;;;;;;6183298;28;83376;-65
2021/05/19 02:19:38;;;;;;;9.38;5.78;;;23.20;50.90;;;;;;6184187;28;80420;-65
2021/05/19 02:22:42;;;;;;;11.02;5.97;;;23.20;50.90;;;;;;6175869;28;82960;-65
2021/05/19 02:25:42;;;;;;;8.85;5.90;;;23.20;50.70;;;;;;6173977;28;83479;-65
2021/05/19 02:28:43;;;;;;;10.00;5.57;;;23.20;50.80;;;;;;6174430;28;81415;-65
2021/05/19 02:31:44;;;;;;;10.10;5.82;;;23.10;50.80;;;;;;6175251;28;83387;-65
2021/05/19 02:34:45;;;;;;;9.13;6.18;;;23.20;50.60;;;;;;6163346;28;81136;-65
2021/05/19 02:37:45;;;;;;;10.23;6.07;;;23.10;50.50;;;;;;6163646;28;80283;-65
2021/05/19 02:40:46;;;;;;;10.32;6.43;;;23.10;50.60;;;;;;6173884;28;82358;-65
2021/05/19 02:43:47;;;;;;;11.68;5.47;;;23.10;50.40;;;;;;6155415;28;82760;-65
2021/05/19 02:46:48;;;;;;;9.48;5.72;;;23.10;50.50;;;;;;6160807;28;80754;-65
2021/05/19 02:49:48;;;;;;;9.55;5.40;;;23.10;50.30;;;;;;6181503;28;80491;-65
2021/05/19 02:52:49;;;;;;;9.38;5.82;;;23.10;50.50;;;;;;6158868;28;80277;-65
2021/05/19 02:55:49;;;;;;;9.13;5.80;;;23.10;50.30;;;;;;6160964;28;80832;-64
2021/05/19 02:58:50;;;;;;;10.52;5.97;;;23.10;50.20;;;;;;6159044;28;80511;-66
2021/05/19 03:01:51;;;;;;;10.50;5.40;;;23.10;50.40;;;;;;6162140;28;80233;-65
2021/05/19 03:04:51;;;;;;;9.50;6.50;;;23.10;50.20;;;;;;6160462;28;81963;-65
2021/05/19 03:07:52;;;;;;;8.93;5.55;;;23.10;50.00;;;;;;6195107;28;81685;-65
2021/05/19 03:10:52;;;;;;;9.02;5.75;;;23.10;50.30;;;;;;6158218;28;80302;-65
2021/05/19 03:13:53;;;;;;;10.20;5.97;;;23.10;50.10;;;;;;6159617;28;80667;-66
2021/05/19 03:16:53;;;;;;;9.23;5.78;;;23.10;49.90;;;;;;6178570;28;80388;-66
2021/05/19 03:19:54;;;;;;;7.88;5.35;;;23.10;49.80;;;;;;6151677;28;80682;-67
2021/05/19 03:22:54;;;;;;;9.00;5.65;;;23.10;49.90;;;;;;6161581;28;80635;-65
2021/05/19 03:25:55;;;;;;;10.60;5.90;;;23.10;49.90;;;;;;6182743;28;81036;-65
2021/05/19 03:28:55;;;;;;;10.15;5.75;;;23.10;50.00;;;;;;6178984;28;80356;-65
2021/05/19 03:31:56;;;;;;;9.05;5.70;;;23.10;49.80;;;;;;6160525;28;80418;-65
2021/05/19 03:34:56;;;;;;;11.30;6.30;;;23.10;50.00;;;;;;6180968;28;81889;-65
2021/05/19 03:37:57;;;;;;;10.88;6.05;;;23.10;49.60;;;;;;6180686;28;80523;-66
2021/05/19 03:40:57;;;;;;;9.68;5.72;;;23.00;49.50;;;;;;6179242;28;80680;-65
2021/05/19 03:43:58;;;;;;;7.93;5.55;;;23.10;49.50;;;;;;6158527;28;80735;-65
2021/05/19 03:46:58;;;;;;;11.00;5.78;;;23.10;49.50;;;;;;6161643;28;82331;-66
2021/05/19 03:49:59;;;;;;;9.85;5.30;;;23.10;49.30;;;;;;6189548;28;80778;-67
2021/05/19 03:52:59;;;;;;;9.70;5.70;;;23.10;49.40;;;;;;6187854;28;81348;-66
2021/05/19 03:56:00;;;;;;;9.35;5.45;;;23.10;49.30;;;;;;6180134;28;82817;-65
2021/05/19 03:59:00;;;;;;;9.70;6.18;;;23.10;49.20;;;;;;6159187;28;80682;-66
2021/05/19 04:02:01;;;;;;;11.20;6.28;;;23.10;49.20;;;;;;6167134;28;80319;-64
2021/05/19 04:05:01;;;;;;;11.40;6.35;;;23.10;49.00;;;;;;6188312;28;80790;-65
2021/05/19 04:08:02;;;;;;;10.07;6.07;;;23.10;49.30;;;;;;6177255;28;80605;-66
2021/05/19 04:11:02;;;;;;;11.18;6.03;;;23.10;49.00;;;;;;6157525;28;81568;-67
2021/05/19 04:14:03;;;;;;;11.75;6.13;;;23.10;49.00;;;;;;6156675;28;80833;-65
2021/05/19 04:17:03;;;;;;;10.95;6.60;;;23.10;49.00;;;;;;6162077;28;81117;-66
2021/05/19 04:20:04;;;;;;;9.98;6.18;;;23.10;49.10;;;;;;6179598;28;80504;-66
2021/05/19 04:23:04;;;;;;;9.25;5.80;;;23.10;48.90;;;;;;6179374;28;81543;-67
2021/05/19 04:26:07;;;;;;;10.85;5.22;;;23.10;49.20;;;;;;6172961;28;81379;-66
2021/05/19 04:29:08;;;;;;;10.15;6.03;;;23.10;49.20;;;;;;6154886;28;80743;-67
2021/05/19 04:32:10;;;;;;;8.98;5.70;;;23.10;48.80;;;;;;6162236;28;82290;-68
2021/05/19 04:35:11;;;;;;;10.75;5.72;;;23.10;48.40;;;;;;6181140;28;81541;-67
2021/05/19 04:38:11;;;;;;;11.30;6.05;;;23.10;48.40;;;;;;6175915;28;80718;-66
2021/05/19 04:41:12;;;;;;;12.00;6.10;;;23.10;48.30;;;;;;6163162;28;80505;-67
2021/05/19 04:44:12;;;;;;;13.25;6.03;;;23.10;48.20;;;;;;6177889;28;80293;-66
2021/05/19 04:47:13;;;;;;;11.73;5.53;;;23.10;47.90;;;;;;6163681;28;80640;-66
2021/05/19 04:50:13;;;;;;;11.68;5.78;;;23.10;48.50;;;;;;6180191;28;80298;-67
2021/05/19 04:53:14;;;;;;;8.85;5.13;;;23.20;48.30;;;;;;6183358;28;81304;-65
2021/05/19 04:56:14;;;;;;;10.63;6.13;;;23.20;48.40;;;;;;6176290;28;80808;-67
2021/05/19 04:59:15;;;;;;;9.57;5.90;;;23.20;47.90;;;;;;6157169;28;80620;-66
2021/05/19 05:02:15;;;;;;;11.55;6.20;;;23.20;47.80;;;;;;6157146;28;80109;-68
2021/05/19 05:05:16;;;;;;;11.75;5.95;;;23.20;48.50;;;;;;6163128;28;80628;-67
2021/05/19 05:08:16;;;;;;;9.50;6.03;;;23.20;48.40;;;;;;6180787;28;80599;-66
2021/05/19 05:11:17;;;;;;;10.68;5.80;;;23.20;48.20;;;;;;6178283;28;80465;-66
2021/05/19 05:14:17;;;;;;;34.83;7.28;;;23.20;48.00;;;;;;6173107;28;80638;-67
2021/05/19 05:17:18;;;;;;;12.30;6.82;;;23.20;48.20;;;;;;6160654;28;82182;-66
2021/05/19 05:20:19;;;;;;;11.48;6.47;;;23.30;48.50;;;;;;6180662;28;82694;-67
2021/05/19 05:23:20;;;;;;;14.55;7.05;;;23.30;48.50;;;;;;6181158;28;83271;-67
2021/05/19 05:26:20;;;;;;;16.00;7.05;;;23.30;48.50;;;;;;6180675;28;81467;-67
2021/05/19 05:29:21;;;;;;;11.02;6.38;;;23.30;48.50;;;;;;6174212;28;80462;-67
2021/05/19 05:32:21;;;;;;;14.13;6.70;;;23.30;48.40;;;;;;6157071;28;80831;-68
2021/05/19 05:35:22;;;;;;;13.00;7.00;;;23.40;48.30;;;;;;6154429;28;81384;-67
2021/05/19 05:38:22;;;;;;;14.68;7.90;;;23.40;47.90;;;;;;6154339;28;80371;-67
2021/05/19 05:41:23;;;;;;;13.13;8.10;;;23.40;47.10;;;;;;6162220;28;80790;-67
2021/05/19 05:44:23;;;;;;;14.30;8.00;;;23.40;47.80;;;;;;6173036;28;80195;-67
2021/05/19 05:47:24;;;;;;;14.77;8.18;;;23.40;47.50;;;;;;6155000;28;83534;-67
2021/05/19 05:50:24;;;;;;;13.45;8.10;;;23.30;47.80;;;;;;6162087;28;80380;-65
2021/05/19 05:53:25;;;;;;;15.43;8.02;;;23.40;48.00;;;;;;6182702;28;80772;-68
2021/05/19 05:56:25;;;;;;;15.30;7.30;;;23.40;47.60;;;;;;6186766;28;81670;-66
2021/05/19 05:59:26;;;;;;;12.25;7.35;;;23.40;47.50;;;;;;6174102;28;80255;-67
2021/05/19 06:02:26;;;;;;;11.77;7.13;;;23.40;47.60;;;;;;6164909;28;80968;-65
2021/05/19 06:05:27;;;;;;;15.40;8.15;;;23.40;48.20;;;;;;6189508;28;80818;-67
2021/05/19 06:08:27;;;;;;;13.57;7.22;;;23.40;47.70;;;;;;6180841;28;80977;-66
2021/05/19 06:11:29;;;;;;;12.45;7.85;;;23.40;47.50;;;;;;6167882;28;80510;-65
2021/05/19 06:14:30;;;;;;;15.38;8.27;;;23.30;47.90;;;;;;6166731;28;80429;-65
2021/05/19 06:17:31;;;;;;;12.45;7.68;;;23.40;47.20;;;;;;6189373;27;80918;-66
2021/05/19 06:20:31;;;;;;;13.60;7.38;;;23.40;47.60;;;;;;6163425;28;80415;-64
2021/05/19 06:23:33;;;;;;;16.23;7.63;;;23.30;47.30;;;;;;6165603;28;81878;-68
2021/05/19 06:26:33;;;;;;;14.80;8.10;;;23.30;47.50;;;;;;6178364;28;82447;-70
2021/05/19 06:29:34;;;;;;;16.48;8.52;;;23.30;47.20;;;;;;6188714;28;83565;-68
2021/05/19 06:32:34;;;;;;;14.82;7.90;;;23.30;46.80;;;;;;6167881;28;80441;-67
2021/05/19 06:35:35;;;;;;;20.05;8.02;;;23.30;46.90;;;;;;6181966;28;80164;-67
2021/05/19 06:38:35;;;;;;;17.90;8.73;;;23.40;47.20;;;;;;6181877;28;80452;-67
2021/05/19 06:41:37;;;;;;;12.48;7.82;;;23.40;47.00;;;;;;6158233;28;80642;-67
2021/05/19 06:44:37;;;;;;;19.65;9.40;;;23.30;46.90;;;;;;6160705;28;80806;-67
2021/05/19 06:47:38;;;;;;;14.63;8.15;;;23.30;46.80;;;;;;6169278;28;83380;-67
2021/05/19 06:50:39;;;;;;;12.27;7.35;;;23.30;46.90;;;;;;6187796;28;80890;-66
2021/05/19 06:53:40;;;;;;;12.43;7.68;;;23.30;46.70;;;;;;6184489;28;80541;-66
2021/05/19 06:56:44;;;;;;;13.90;7.45;;;23.40;46.90;;;;;;6173342;28;80630;-67
2021/05/19 06:59:45;;;;;;;13.30;7.80;;;23.30;47.00;;;;;;6158980;28;80396;-67
2021/05/19 07:02:45;;;;;;;12.10;8.27;;;23.40;46.90;;;;;;6169347;28;80642;-67
2021/05/19 07:05:46;;;;;;;12.38;8.05;;;23.40;46.60;;;;;;6182635;28;81597;-68
2021/05/19 07:08:46;;;;;;;13.57;7.90;;;23.40;46.80;;;;;;6183044;28;81212;-67
2021/05/19 07:11:47;;;;;;;10.90;7.50;;;23.40;47.00;;;;;;6186050;28;80770;-67
2021/05/19 07:14:51;;;;;;;42.13;17.13;;;23.40;46.70;;;;;;6183647;28;80403;-67
2021/05/19 07:17:52;;;;;;;190.73;64.35;;;23.40;46.30;;;;;;6184198;28;83217;-67
2021/05/19 07:20:52;;;;;;;721.40;274.95;;;23.40;46.40;;;;;;6166659;27;83534;-67
2021/05/19 07:23:53;;;;;;;1043.65;403.65;;;23.40;46.50;;;;;;6151057;28;85280;-68
2021/05/19 07:26:53;;;;;;;388.80;125.90;;;23.40;46.60;;;;;;6180679;28;89458;-69
2021/05/19 07:29:54;;;;;;;653.50;230.05;;;23.40;46.50;;;;;;6176886;28;85696;-68
2021/05/19 07:32:54;;;;;;;660.60;238.50;;;23.40;46.70;;;;;;6176348;28;85822;-69
2021/05/19 07:35:55;;;;;;;677.85;244.80;;;23.40;47.30;;;;;;6164497;28;85433;-69
2021/05/19 07:38:56;;;;;;;591.80;214.43;;;23.40;47.20;;;;;;6160840;28;85762;-67
2021/05/19 07:41:56;;;;;;;603.22;218.57;;;23.40;47.40;;;;;;6167161;28;85832;-67
2021/05/19 07:44:57;;;;;;;557.50;193.85;;;23.40;47.50;;;;;;6162852;28;85849;-66
2021/05/19 07:47:57;;;;;;;425.08;138.45;;;23.40;47.40;;;;;;6163976;28;88289;-66
2021/05/19 07:50:58;;;;;;;381.33;123.85;;;23.40;47.00;;;;;;6181583;28;85894;-66
2021/05/19 07:53:58;;;;;;;394.10;125.05;;;23.40;46.30;;;;;;6164081;28;86707;-66
2021/05/19 07:57:02;;;;;;;391.45;123.07;;;23.40;46.50;;;;;;6162828;28;87780;-67
2021/05/19 08:00:40;;;;;;;338.77;115.22;;;23.40;46.50;;;;;;6164717;28;86027;-66
2021/05/19 08:03:30;;;;;;;346.65;112.20;;;23.40;46.80;;;;;;6166434;28;86436;-66
2021/05/19 08:06:30;;;;;;;320.17;109.85;;;23.40;46.50;;;;;;6160989;28;86326;-66
2021/05/19 08:09:31;;;;;;;316.50;104.18;;;23.40;46.40;;;;;;6155952;28;85549;-65
2021/05/19 08:12:32;;;;;;;268.58;93.78;;;23.40;46.40;;;;;;6149745;28;86579;-66
2021/05/19 08:15:32;;;;;;;243.55;86.13;;;23.40;46.30;;;;;;6149732;28;86795;-66
2021/05/19 08:18:33;;;;;;;235.43;84.10;;;23.40;46.40;;;;;;6169537;28;84128;-66
2021/05/19 08:21:33;;;;;;;233.52;77.72;;;23.40;46.30;;;;;;6161551;28;84584;-66
2021/05/19 08:24:34;;;;;;;209.43;75.97;;;23.40;46.50;;;;;;6153989;28;85143;-66
2021/05/19 08:27:34;;;;;;;202.85;69.03;;;23.40;46.10;;;;;;6153179;28;84372;-66
2021/05/19 08:30:35;;;;;;;186.95;67.22;;;23.40;46.10;;;;;;6170949;28;83471;-64
2021/05/19 08:33:35;;;;;;;182.07;66.72;;;23.40;46.10;;;;;;6178223;28;83150;-66
2021/05/19 08:36:36;;;;;;;181.43;63.55;;;23.50;46.20;;;;;;6160916;28;84119;-66
2021/05/19 08:39:37;;;;;;;173.52;59.75;;;23.50;46.10;;;;;;6155605;28;83990;-66
2021/05/19 08:42:37;;;;;;;164.75;60.47;;;23.50;46.50;;;;;;6155063;28;83050;-66
2021/05/19 08:45:38;;;;;;;153.30;55.45;;;23.40;46.30;;;;;;6160542;28;83801;-66
2021/05/19 08:48:38;;;;;;;142.43;54.25;;;23.50;46.10;;;;;;6166717;28;83215;-66
2021/05/19 08:51:39;;;;;;;143.18;51.50;;;23.50;46.40;;;;;;6170138;28;83311;-66
2021/05/19 08:54:39;;;;;;;152.77;53.90;;;23.50;46.30;;;;;;6177221;28;83406;-66
2021/05/19 08:57:41;;;;;;;139.48;51.58;;;23.50;46.40;;;;;;6177069;28;82863;-66
2021/05/19 09:00:42;;;;;;;123.90;44.85;;;23.50;46.30;;;;;;6177231;28;83389;-66
2021/05/19 09:03:43;;;;;;;118.35;44.63;;;23.50;46.30;;;;;;6180751;28;82968;-66
2021/05/19 09:06:43;;;;;;;114.13;41.40;;;23.50;46.20;;;;;;6177041;28;83071;-66
2021/05/19 09:09:45;;;;;;;114.82;41.10;;;23.50;46.10;;;;;;6178118;28;83531;-67
2021/05/19 09:12:45;;;;;;;101.57;38.33;;;23.50;46.20;;;;;;6180010;28;82988;-66
2021/05/19 09:15:46;;;;;;;111.20;37.75;;;23.50;45.90;;;;;;6181553;28;83536;-66
2021/05/19 09:18:46;;;;;;;106.07;37.10;;;23.50;46.00;;;;;;6180961;28;83123;-66
2021/05/19 09:21:47;;;;;;;105.10;35.00;;;23.50;46.10;;;;;;6158394;28;84216;-66
2021/05/19 09:24:48;;;;;;;99.07;34.35;;;23.50;46.00;;;;;;6177363;28;83200;-67
2021/05/19 09:27:48;;;;;;;82.57;31.63;;;23.50;46.10;;;;;;6182327;28;84925;-68
2021/05/19 09:30:49;;;;;;;81.75;33.28;;;23.50;46.20;;;;;;6176660;28;83182;-68
2021/05/19 09:33:51;;;;;;;90.47;33.35;;;23.50;45.70;;;;;;6161966;28;83728;-66
2021/05/19 09:36:51;;;;;;;85.90;30.30;;;23.60;45.10;;;;;;6149240;28;83844;-65
2021/05/19 09:39:52;;;;;;;74.68;30.88;;;23.60;45.50;;;;;;6169000;28;82942;-67
2021/05/19 09:42:58;;;;;;;69.70;29.08;;;23.60;45.20;;;;;;6157045;28;84340;-66
2021/05/19 09:45:58;;;;;;;;;;;23.60;45.50;;;;;;6173539;28;84149;-67
2021/05/19 09:48:59;;;;;;;77.88;28.50;;;23.60;46.50;;;;;;6185479;28;84099;-66
2021/05/19 09:51:59;;;;;;;67.97;25.98;;;23.60;45.30;;;;;;6154704;28;83878;-67
2021/05/19 09:55:00;;;;;;;67.75;25.05;;;23.60;45.60;;;;;;6151277;27;83769;-66
2021/05/19 09:58:00;;;;;;;72.60;28.27;;;23.70;45.40;;;;;;6153231;28;84044;-66
2021/05/19 10:01:01;;;;;;;56.45;23.27;;;23.70;45.40;;;;;;6150193;28;83468;-67
2021/05/19 10:04:01;;;;;;;55.50;24.90;;;23.60;45.50;;;;;;6151644;28;84029;-67
2021/05/19 10:07:02;;;;;;;69.88;30.98;;;23.70;45.50;;;;;;6173703;28;83730;-66
2021/05/19 10:10:03;;;;;;;80.72;34.55;;;23.70;45.60;;;;;;6159183;28;84035;-67
2021/05/19 10:13:05;;;;;;;76.43;36.72;;;23.70;45.80;;;;;;6154827;27;83928;-67
2021/05/19 10:16:05;;;;;;;79.47;38.13;;;23.70;45.70;;;;;;6176549;28;83067;-66
2021/05/19 10:19:06;;;;;;;81.95;38.20;;;23.70;46.00;;;;;;6176833;28;84182;-67
2021/05/19 10:22:06;;;;;;;76.55;39.30;;;23.70;46.00;;;;;;6155147;28;83986;-67
2021/05/19 10:25:18;;;;;;;88.53;40.30;;;23.70;46.10;;;;;;6151101;28;84422;-65
2021/05/19 10:28:19;;;;;;;85.70;41.72;;;23.80;46.20;;;;;;6175878;28;86468;-67
2021/05/19 10:31:19;;;;;;;81.47;38.75;;;23.70;46.10;;;;;;6169656;28;83022;-67
2021/05/19 10:34:20;;;;;;;78.45;38.53;;;23.80;46.20;;;;;;6171892;28;83554;-67
2021/05/19 10:37:20;;;;;;;79.68;39.33;;;23.70;46.20;;;;;;6157585;28;84328;-67
2021/05/19 10:40:21;;;;;;;73.13;35.80;;;23.80;46.00;;;;;;6163634;28;85911;-67
2021/05/19 10:43:21;;;;;;;65.68;35.35;;;23.80;46.30;;;;;;6155287;28;83244;-66
2021/05/19 10:46:22;;;;;;;66.68;35.03;;;23.70;46.00;;;;;;6179977;28;85852;-66
2021/05/19 10:49:22;;;;;;;66.10;34.10;;;23.80;46.40;;;;;;6183733;28;83699;-67
2021/05/19 10:59:18;;;;;;;59.58;30.45;;;23.80;46.00;;;;;;6174176;28;83094;-68
2021/05/19 11:02:19;;;;;;;58.08;28.83;;;23.80;46.20;;;;;;6163134;28;83078;-66
2021/05/19 11:05:19;;;;;;;51.95;28.23;;;23.80;46.00;;;;;;6181013;28;83228;-66
2021/05/19 11:08:19;;;;;;;53.95;26.85;;;23.90;45.80;;;;;;6173348;28;83331;-68
2021/05/19 11:11:27;;;;;;;50.90;27.48;;;23.90;45.80;;;;;;6155534;28;83174;-67
2021/05/19 11:14:46;;;;;;;54.85;27.75;;;23.90;45.90;;;;;;6162046;28;83352;-66
2021/05/19 11:17:56;;;;;;;53.00;26.08;;;23.90;46.10;;;;;;6169324;28;84195;-67
2021/05/19 11:20:56;;;;;;;53.75;26.55;;;23.90;46.00;;;;;;6155808;28;83305;-66
2021/05/19 11:23:57;;;;;;;45.28;24.48;;;23.90;46.00;;;;;;6168053;28;83547;-66
2021/05/19 11:26:58;;;;;;;45.63;24.20;;;23.90;45.90;;;;;;6187281;28;84206;-66
2021/05/19 11:29:58;;;;;;;47.58;23.92;;;23.90;45.60;;;;;;6178505;28;84372;-66
2021/05/19 11:32:59;;;;;;;37.97;21.05;;;23.90;45.60;;;;;;6166601;28;84322;-65
2021/05/19 11:35:59;;;;;;;43.03;23.35;;;23.90;45.60;;;;;;6153747;28;83359;-66
2021/05/19 11:39:03;;;;;;;45.15;22.58;;;23.90;45.40;;;;;;6154368;28;84852;-65
2021/05/19 11:42:04;;;;;;;41.35;19.83;;;23.90;45.50;;;;;;6164610;28;83155;-65
2021/05/19 11:45:04;;;;;;;35.53;19.23;;;23.90;45.50;;;;;;6164385;28;83970;-66
2021/05/19 11:48:05;;;;;;;38.13;19.60;;;23.90;45.60;;;;;;6164166;28;83470;-66
2021/05/19 11:51:05;;;;;;;36.85;20.65;;;23.90;45.40;;;;;;6165673;28;83941;-66
2021/05/19 11:54:06;;;;;;;31.90;17.75;;;23.90;45.50;;;;;;6150349;28;83841;-65
2021/05/19 11:57:07;;;;;;;33.55;18.20;;;23.90;45.70;;;;;;6154156;28;84718;-65
2021/05/19 12:00:07;;;;;;;32.95;17.38;;;23.80;45.50;;;;;;6172873;28;83379;-65
2021/05/19 12:03:13;;;;;;;29.63;16.92;;;23.80;45.70;;;;;;6174129;28;83158;-65
2021/05/19 12:06:15;;;;;;;28.02;16.65;;;23.80;45.70;;;;;;6163089;28;88791;-66
2021/05/19 12:09:17;;;;;;;27.00;15.05;;;23.80;45.60;;;;;;6149368;28;82895;-65
2021/05/19 12:12:17;;;;;;;25.63;14.70;;;23.80;45.80;;;;;;6148093;28;84130;-64
2021/05/19 12:15:18;;;;;;;29.23;15.57;;;23.80;45.80;;;;;;6144649;28;84181;-65
2021/05/19 12:18:18;;;;;;;32.85;13.63;;;23.80;45.50;;;;;;6158344;28;84116;-66
2021/05/19 12:21:19;;;;;;;26.45;14.90;;;23.80;45.70;;;;;;6175924;27;85158;-65
2021/05/19 12:24:20;;;;;;;25.05;13.40;;;23.80;45.40;;;;;;6177592;28;83288;-66
2021/05/19 12:27:21;;;;;;;25.45;13.10;;;23.90;45.40;;;;;;6159050;28;85655;-65
2021/05/19 12:30:22;;;;;;;21.80;12.43;;;23.90;45.00;;;;;;6177391;28;83524;-66
2021/05/19 12:33:25;;;;;;;24.92;13.02;;;23.90;45.10;;;;;;6176582;28;84005;-65
2021/05/19 12:36:26;;;;;;;24.83;12.95;;;23.90;45.20;;;;;;6159897;28;85414;-65
2021/05/19 12:39:26;;;;;;;23.45;12.13;;;23.90;45.00;;;;;;6174279;28;85843;-65
2021/05/19 12:42:28;;;;;;;17.85;11.23;;;23.90;45.00;;;;;;6152805;28;83068;-65
2021/05/19 12:45:31;;;;;;;22.48;11.15;;;23.90;45.20;;;;;;6169759;28;83008;-65
2021/05/19 12:48:32;;;;;;;20.80;11.40;;;23.90;45.10;;;;;;6176844;28;84037;-65
2021/05/19 12:51:32;;;;;;;17.17;10.75;;;23.90;45.30;;;;;;6177543;28;84078;-65
2021/05/19 12:54:34;;;;;;;17.48;10.27;;;23.90;44.90;;;;;;6179885;28;82780;-65
2021/05/19 12:57:35;;;;;;;14.68;9.15;;;23.90;45.00;;;;;;6169704;28;84244;-65
2021/05/19 13:00:35;;;;;;;16.38;9.23;;;23.90;44.60;;;;;;6167575;28;82762;-65
2021/05/19 13:03:36;;;;;;;14.00;8.95;;;23.90;44.80;;;;;;6175319;28;81112;-65
2021/05/19 13:06:37;;;;;;;14.63;8.43;;;23.90;44.60;;;;;;6164015;28;80455;-65
2021/05/19 13:09:38;;;;;;;12.60;8.57;;;23.90;44.40;;;;;;6173970;28;80788;-65
2021/05/19 13:12:40;;;;;;;16.33;7.72;;;23.90;44.70;;;;;;6163596;28;83271;-64
2021/05/19 13:15:56;;;;;;;12.98;7.97;;;23.90;44.60;;;;;;6177667;28;81441;-64
2021/05/19 13:19:00;;;;;;;14.52;7.97;;;23.90;44.70;;;;;;6156098;28;81584;-64
2021/05/19 13:22:01;;;;;;;12.30;7.22;;;23.90;44.70;;;;;;6158676;28;80538;-65
2021/05/19 13:25:01;;;;;;;12.48;7.03;;;23.90;44.90;;;;;;6176537;28;81615;-66
2021/05/19 13:28:06;;;;;;;11.73;7.05;;;23.90;44.50;;;;;;6179500;28;80900;-65
2021/05/19 13:31:06;;;;;;;12.93;7.78;;;23.90;44.60;;;;;;6180435;28;80946;-64
2021/05/19 13:37:07;;;;;;;11.02;6.88;;;23.90;44.70;;;;;;6157114;28;80457;-64
2021/05/19 13:40:08;;;;;;;11.73;7.03;;;23.90;44.70;;;;;;6178189;28;80883;-66
2021/05/19 13:43:08;;;;;;;10.85;6.38;;;23.90;44.70;;;;;;6162776;28;82912;-65
2021/05/19 13:46:09;;;;;;;10.85;6.95;;;23.90;44.70;;;;;;6178789;28;81465;-64
2021/05/19 13:49:22;;;;;;;13.18;5.90;;;23.80;44.70;;;;;;6159234;28;83374;-65
2021/05/19 13:52:23;;;;;;;11.45;5.43;;;23.80;44.60;;;;;;6168775;28;81557;-65
2021/05/19 13:55:23;;;;;;;8.02;5.50;;;23.80;45.00;;;;;;6153764;28;80512;-67
2021/05/19 13:58:24;;;;;;;7.30;5.18;;;23.80;44.90;;;;;;6157385;28;82304;-68
2021/05/19 14:01:24;;;;;;;9.57;5.60;;;23.80;45.40;;;;;;6182347;28;83275;-67
2021/05/19 14:04:25;;;;;;;13.05;6.28;;;23.70;45.70;;;;;;6191459;28;81373;-66
2021/05/19 14:07:26;;;;;;;10.30;4.75;;;23.70;45.80;;;;;;6159938;28;82505;-65
2021/05/19 14:10:29;;;;;;;9.18;4.95;;;23.80;45.80;;;;;;6183527;28;80879;-66
2021/05/19 14:13:40;;;;;;;8.18;5.13;;;23.70;45.70;;;;;;6197764;28;85756;-66
2021/05/19 14:17:07;;;;;;;7.93;5.53;;;23.70;46.00;;;;;;6198837;28;82119;-65
2021/05/19 14:29:59;;;;;;;9.38;4.43;;;23.80;45.70;;;;;;6199060;28;81619;-66
2021/05/19 14:32:59;;;;;;;6.80;4.40;;;23.80;45.50;;;;;;6188330;28;81699;-66
2021/05/19 14:36:33;;;;;;;7.25;4.38;;;23.80;45.40;;;;;;6201911;28;82516;-66
2021/05/19 15:02:21;;;;;;;8.43;3.35;;;23.70;45.20;;;;;;6160857;28;80380;-66
2021/05/19 15:05:21;;;;;;;8.65;3.05;;;23.80;45.70;;;;;;6159306;28;80579;-66
2021/05/19 15:08:22;;;;;;;5.47;3.28;;;23.80;45.50;;;;;;6166539;28;80465;-65
2021/05/19 15:11:22;;;;;;;7.57;3.92;;;23.80;45.40;;;;;;6181234;28;80259;-66
2021/05/19 15:14:23;;;;;;;5.47;3.20;;;23.80;45.50;;;;;;6165681;28;80454;-66
2021/05/19 15:17:23;;;;;;;4.68;3.10;;;23.80;45.50;;;;;;6174459;28;81224;-67
2021/05/19 15:20:24;;;;;;;5.00;3.20;;;23.70;45.60;;;;;;6158096;28;80435;-66
2021/05/19 15:23:24;;;;;;;7.82;2.95;;;23.70;45.50;;;;;;6165137;28;81543;-67
2021/05/19 15:26:25;;;;;;;4.43;2.83;;;23.70;45.50;;;;;;6181758;28;80453;-65
2021/05/19 15:29:25;;;;;;;3.72;2.97;;;23.70;45.50;;;;;;6181950;28;80348;-67
2021/05/19 15:32:26;;;;;;;5.90;2.80;;;23.70;45.70;;;;;;6185526;28;81641;-67
2021/05/19 15:35:27;;;;;;;4.45;2.95;;;23.70;45.70;;;;;;6173463;28;81256;-67
2021/05/19 15:38:27;;;;;;;6.63;2.88;;;23.70;45.90;;;;;;6155210;28;81053;-65
2021/05/19 15:41:28;;;;;;;6.47;3.00;;;23.70;46.80;;;;;;6166915;28;81233;-64
2021/05/19 15:44:28;;;;;;;4.68;2.20;;;23.70;46.40;;;;;;6183208;28;81344;-64
2021/05/19 15:47:30;;;;;;;7.50;2.97;;;23.70;46.60;;;;;;6202239;28;80979;-67
2021/05/19 15:50:31;;;;;;;6.30;2.67;;;23.70;47.00;;;;;;6180144;28;80416;-66
2021/05/19 15:53:31;;;;;;;3.60;2.47;;;23.70;47.20;;;;;;6172386;28;80782;-67
2021/05/19 15:56:32;;;;;;;8.80;2.58;;;23.70;47.60;;;;;;6158340;28;81188;-66
2021/05/19 15:59:33;;;;;;;4.20;2.80;;;23.70;47.50;;;;;;6154341;28;81883;-65
2021/05/19 16:02:33;;;;;;;9.20;2.92;;;23.80;47.30;;;;;;6157308;28;81647;-66
2021/05/19 16:05:34;;;;;;;5.50;3.13;;;23.70;47.20;;;;;;6166967;28;81061;-64
2021/05/19 16:08:35;;;;;;;5.47;3.40;;;23.70;46.70;;;;;;6171184;28;80775;-67
2021/05/19 16:11:35;;;;;;;6.57;2.85;;;23.70;46.50;;;;;;6165948;28;80956;-65